Terminal Aerodrome Forecast
Issued by NWS

Home | Current Version | Previous Version | Text Only | Print | Product List | Glossary On
Versions: 1 2 3 4 5 6 7 8 9 10 11 12 13 14 15
646
FTUS41 KLWX 261731
TAFMTN
TAF
KMTN 261731Z 2618/2718 07006KT P6SM OVC010
     FM262200 09011KT 4SM BR OVC008
     FM270000 09011KT 2SM -DZRA BR OVC008
     FM270200 10009KT 1 1/2SM -DZRA BR OVC008
     FM270600 13006KT 1SM BR OVC008
     FM271000 16007KT 2SM BR OVC008
     FM271500 20008KT 6SM BR OVC008
     FM271700 21008KT P6SM BKN025=

USA.gov is the U.S. government's official web portal to all federal, state and local government web resources and services.